sensor_id;sensor_type;location;lat;lon;timestamp;P1;durP1;ratioP1;P2;durP2;ratioP2
81510;SDS011;70931;48.796;8.440;2023-07-02T00:02:16;9.27;;;5.07;;
81510;SDS011;70931;48.796;8.440;2023-07-02T00:07:10;9.63;;;4.47;;
81510;SDS011;70931;48.796;8.440;2023-07-02T00:09:37;8.23;;;5.25;;
81510;SDS011;70931;48.796;8.440;2023-07-02T00:12:03;7.55;;;4.80;;
81510;SDS011;70931;48.796;8.440;2023-07-02T00:14:30;8.48;;;4.68;;
81510;SDS011;70931;48.796;8.440;2023-07-02T00:16:57;8.10;;;5.00;;
81510;SDS011;70931;48.796;8.440;2023-07-02T00:19:24;7.75;;;4.53;;
81510;SDS011;70931;48.796;8.440;2023-07-02T00:21:51;7.80;;;4.47;;
81510;SDS011;70931;48.796;8.440;2023-07-02T00:24:19;12.05;;;4.70;;
81510;SDS011;70931;48.796;8.440;2023-07-02T00:26:46;7.30;;;4.90;;
81510;SDS011;70931;48.796;8.440;2023-07-02T00:29:13;9.05;;;4.43;;
81510;SDS011;70931;48.796;8.440;2023-07-02T00:31:40;7.15;;;4.60;;
81510;SDS011;70931;48.796;8.440;2023-07-02T00:34:06;8.65;;;4.90;;
81510;SDS011;70931;48.796;8.440;2023-07-02T00:36:33;7.47;;;4.60;;
81510;SDS011;70931;48.796;8.440;2023-07-02T00:39:00;8.25;;;5.20;;
81510;SDS011;70931;48.796;8.440;2023-07-02T00:43:55;8.23;;;4.45;;
81510;SDS011;70931;48.796;8.440;2023-07-02T00:46:22;8.38;;;4.55;;
81510;SDS011;70931;48.796;8.440;2023-07-02T00:48:55;7.15;;;4.00;;
81510;SDS011;70931;48.796;8.440;2023-07-02T00:51:25;8.38;;;4.63;;
81510;SDS011;70931;48.796;8.440;2023-07-02T00:53:54;7.38;;;4.00;;
81510;SDS011;70931;48.796;8.440;2023-07-02T00:56:23;6.32;;;4.00;;
81510;SDS011;70931;48.796;8.440;2023-07-02T00:58:52;6.95;;;4.18;;
81510;SDS011;70931;48.796;8.440;2023-07-02T01:01:21;7.28;;;4.28;;
81510;SDS011;70931;48.796;8.440;2023-07-02T01:03:50;9.18;;;4.45;;
81510;SDS011;70931;48.796;8.440;2023-07-02T01:06:24;6.70;;;3.95;;
81510;SDS011;70931;48.796;8.440;2023-07-02T01:08:53;8.65;;;4.50;;
81510;SDS011;70931;48.796;8.440;2023-07-02T01:11:22;7.33;;;4.07;;
81510;SDS011;70931;48.796;8.440;2023-07-02T01:13:55;6.50;;;3.70;;
81510;SDS011;70931;48.796;8.440;2023-07-02T01:16:26;7.28;;;3.58;;
81510;SDS011;70931;48.796;8.440;2023-07-02T01:18:53;8.02;;;3.80;;
81510;SDS011;70931;48.796;8.440;2023-07-02T01:21:21;8.85;;;4.28;;
81510;SDS011;70931;48.796;8.440;2023-07-02T01:23:50;6.55;;;3.60;;
81510;SDS011;70931;48.796;8.440;2023-07-02T01:26:17;7.47;;;3.83;;
81510;SDS011;70931;48.796;8.440;2023-07-02T01:28:44;6.70;;;3.50;;
81510;SDS011;70931;48.796;8.440;2023-07-02T01:31:10;7.28;;;3.97;;
81510;SDS011;70931;48.796;8.440;2023-07-02T01:33:37;6.47;;;4.20;;
81510;SDS011;70931;48.796;8.440;2023-07-02T01:36:04;6.20;;;3.67;;
81510;SDS011;70931;48.796;8.440;2023-07-02T01:38:31;6.75;;;3.55;;
81510;SDS011;70931;48.796;8.440;2023-07-02T01:40:58;6.35;;;2.85;;
81510;SDS011;70931;48.796;8.440;2023-07-02T01:43:24;6.60;;;3.53;;
81510;SDS011;70931;48.796;8.440;2023-07-02T01:45:51;7.35;;;3.70;;
81510;SDS011;70931;48.796;8.440;2023-07-02T01:48:18;6.55;;;3.38;;
81510;SDS011;70931;48.796;8.440;2023-07-02T01:50:46;5.57;;;3.10;;
81510;SDS011;70931;48.796;8.440;2023-07-02T01:53:13;7.28;;;3.47;;
81510;SDS011;70931;48.796;8.440;2023-07-02T01:55:40;6.55;;;3.25;;
81510;SDS011;70931;48.796;8.440;2023-07-02T01:58:06;7.70;;;3.85;;
81510;SDS011;70931;48.796;8.440;2023-07-02T02:00:33;6.20;;;3.33;;
81510;SDS011;70931;48.796;8.440;2023-07-02T02:03:00;6.45;;;3.40;;
81510;SDS011;70931;48.796;8.440;2023-07-02T02:05:27;6.63;;;3.55;;
81510;SDS011;70931;48.796;8.440;2023-07-02T02:07:54;7.22;;;3.85;;
81510;SDS011;70931;48.796;8.440;2023-07-02T02:10:20;7.43;;;4.00;;
81510;SDS011;70931;48.796;8.440;2023-07-02T02:12:47;8.18;;;3.97;;
81510;SDS011;70931;48.796;8.440;2023-07-02T02:15:13;10.45;;;4.68;;
81510;SDS011;70931;48.796;8.440;2023-07-02T02:17:40;8.27;;;4.43;;
81510;SDS011;70931;48.796;8.440;2023-07-02T02:20:07;7.30;;;4.72;;
81510;SDS011;70931;48.796;8.440;2023-07-02T02:22:34;8.15;;;4.43;;
81510;SDS011;70931;48.796;8.440;2023-07-02T02:25:01;11.02;;;4.78;;
81510;SDS011;70931;48.796;8.440;2023-07-02T02:27:30;9.68;;;5.10;;
81510;SDS011;70931;48.796;8.440;2023-07-02T02:29:56;8.35;;;4.55;;
81510;SDS011;70931;48.796;8.440;2023-07-02T02:32:23;7.82;;;4.03;;
81510;SDS011;70931;48.796;8.440;2023-07-02T02:34:50;8.48;;;4.95;;
81510;SDS011;70931;48.796;8.440;2023-07-02T02:37:18;8.15;;;4.53;;
81510;SDS011;70931;48.796;8.440;2023-07-02T02:39:45;9.32;;;4.50;;
81510;SDS011;70931;48.796;8.440;2023-07-02T02:42:12;8.88;;;5.05;;
81510;SDS011;70931;48.796;8.440;2023-07-02T02:44:39;10.10;;;4.40;;
81510;SDS011;70931;48.796;8.440;2023-07-02T02:47:06;7.05;;;3.90;;
81510;SDS011;70931;48.796;8.440;2023-07-02T02:49:32;8.75;;;4.18;;
81510;SDS011;70931;48.796;8.440;2023-07-02T02:51:59;8.40;;;4.18;;
81510;SDS011;70931;48.796;8.440;2023-07-02T02:54:26;6.55;;;4.25;;
81510;SDS011;70931;48.796;8.440;2023-07-02T02:56:52;9.73;;;4.63;;
81510;SDS011;70931;48.796;8.440;2023-07-02T02:59:19;7.57;;;4.00;;
81510;SDS011;70931;48.796;8.440;2023-07-02T03:01:45;6.57;;;3.90;;
81510;SDS011;70931;48.796;8.440;2023-07-02T03:04:12;9.00;;;4.40;;
81510;SDS011;70931;48.796;8.440;2023-07-02T03:06:39;8.82;;;4.50;;
81510;SDS011;70931;48.796;8.440;2023-07-02T03:09:06;10.40;;;4.40;;
81510;SDS011;70931;48.796;8.440;2023-07-02T03:11:32;11.23;;;5.10;;
81510;SDS011;70931;48.796;8.440;2023-07-02T03:13:59;8.73;;;4.70;;
81510;SDS011;70931;48.796;8.440;2023-07-02T03:16:26;8.95;;;4.63;;
81510;SDS011;70931;48.796;8.440;2023-07-02T03:18:52;8.32;;;5.18;;
81510;SDS011;70931;48.796;8.440;2023-07-02T03:21:19;9.45;;;4.53;;
81510;SDS011;70931;48.796;8.440;2023-07-02T03:23:46;9.82;;;5.18;;
81510;SDS011;70931;48.796;8.440;2023-07-02T03:26:12;9.25;;;4.35;;
81510;SDS011;70931;48.796;8.440;2023-07-02T03:28:39;9.43;;;4.53;;
81510;SDS011;70931;48.796;8.440;2023-07-02T03:31:05;10.25;;;5.20;;
81510;SDS011;70931;48.796;8.440;2023-07-02T03:33:32;9.88;;;5.15;;
81510;SDS011;70931;48.796;8.440;2023-07-02T03:35:59;7.35;;;4.05;;
81510;SDS011;70931;48.796;8.440;2023-07-02T03:38:26;8.60;;;4.65;;
81510;SDS011;70931;48.796;8.440;2023-07-02T03:40:52;9.98;;;4.88;;
81510;SDS011;70931;48.796;8.440;2023-07-02T03:43:19;12.93;;;4.97;;
81510;SDS011;70931;48.796;8.440;2023-07-02T03:45:45;10.20;;;4.57;;
81510;SDS011;70931;48.796;8.440;2023-07-02T03:48:12;12.25;;;4.85;;
81510;SDS011;70931;48.796;8.440;2023-07-02T03:50:39;9.25;;;4.20;;
81510;SDS011;70931;48.796;8.440;2023-07-02T03:53:05;9.07;;;4.65;;
81510;SDS011;70931;48.796;8.440;2023-07-02T03:55:32;9.13;;;4.55;;
81510;SDS011;70931;48.796;8.440;2023-07-02T03:57:59;10.60;;;4.95;;
81510;SDS011;70931;48.796;8.440;2023-07-02T04:00:25;9.85;;;4.88;;
81510;SDS011;70931;48.796;8.440;2023-07-02T04:02:52;10.35;;;4.30;;
81510;SDS011;70931;48.796;8.440;2023-07-02T04:05:19;9.38;;;4.85;;
81510;SDS011;70931;48.796;8.440;2023-07-02T04:07:46;10.43;;;5.10;;
81510;SDS011;70931;48.796;8.440;2023-07-02T04:10:13;10.23;;;4.82;;
81510;SDS011;70931;48.796;8.440;2023-07-02T04:12:39;11.73;;;5.32;;
81510;SDS011;70931;48.796;8.440;2023-07-02T04:15:06;10.85;;;4.80;;
81510;SDS011;70931;48.796;8.440;2023-07-02T04:17:34;10.35;;;5.35;;
81510;SDS011;70931;48.796;8.440;2023-07-02T04:20:02;13.25;;;5.20;;
81510;SDS011;70931;48.796;8.440;2023-07-02T04:22:30;11.60;;;4.85;;
81510;SDS011;70931;48.796;8.440;2023-07-02T04:24:56;8.80;;;4.68;;
81510;SDS011;70931;48.796;8.440;2023-07-02T04:27:23;10.82;;;4.75;;
81510;SDS011;70931;48.796;8.440;2023-07-02T04:29:49;9.85;;;5.05;;
81510;SDS011;70931;48.796;8.440;2023-07-02T04:32:16;10.73;;;5.25;;
81510;SDS011;70931;48.796;8.440;2023-07-02T04:34:43;9.40;;;5.10;;
81510;SDS011;70931;48.796;8.440;2023-07-02T04:37:09;10.32;;;4.40;;
81510;SDS011;70931;48.796;8.440;2023-07-02T04:39:36;9.43;;;5.05;;
81510;SDS011;70931;48.796;8.440;2023-07-02T04:42:03;11.93;;;4.72;;
81510;SDS011;70931;48.796;8.440;2023-07-02T04:44:30;10.52;;;5.35;;
81510;SDS011;70931;48.796;8.440;2023-07-02T04:47:00;10.07;;;5.18;;
81510;SDS011;70931;48.796;8.440;2023-07-02T04:49:27;9.63;;;5.15;;
81510;SDS011;70931;48.796;8.440;2023-07-02T04:51:54;9.65;;;5.38;;
81510;SDS011;70931;48.796;8.440;2023-07-02T04:54:21;11.55;;;5.00;;
81510;SDS011;70931;48.796;8.440;2023-07-02T04:56:48;10.75;;;5.07;;
81510;SDS011;70931;48.796;8.440;2023-07-02T04:59:14;10.32;;;5.38;;
81510;SDS011;70931;48.796;8.440;2023-07-02T05:01:42;10.40;;;5.15;;
81510;SDS011;70931;48.796;8.440;2023-07-02T05:04:11;9.90;;;5.43;;
81510;SDS011;70931;48.796;8.440;2023-07-02T05:06:38;12.00;;;5.25;;
81510;SDS011;70931;48.796;8.440;2023-07-02T05:09:05;9.48;;;4.68;;
81510;SDS011;70931;48.796;8.440;2023-07-02T05:11:32;9.48;;;5.07;;
81510;SDS011;70931;48.796;8.440;2023-07-02T05:13:59;8.77;;;4.72;;
81510;SDS011;70931;48.796;8.440;2023-07-02T05:16:26;9.95;;;5.35;;
81510;SDS011;70931;48.796;8.440;2023-07-02T05:18:52;12.48;;;4.63;;
81510;SDS011;70931;48.796;8.440;2023-07-02T05:21:19;10.13;;;4.70;;
81510;SDS011;70931;48.796;8.440;2023-07-02T05:23:46;11.05;;;4.75;;
81510;SDS011;70931;48.796;8.440;2023-07-02T05:26:14;12.20;;;5.10;;
81510;SDS011;70931;48.796;8.440;2023-07-02T05:28:41;9.52;;;4.55;;
81510;SDS011;70931;48.796;8.440;2023-07-02T05:31:07;9.80;;;4.93;;
81510;SDS011;70931;48.796;8.440;2023-07-02T05:33:34;12.68;;;4.60;;
81510;SDS011;70931;48.796;8.440;2023-07-02T05:36:01;14.70;;;5.03;;
81510;SDS011;70931;48.796;8.440;2023-07-02T05:38:27;9.10;;;4.80;;
81510;SDS011;70931;48.796;8.440;2023-07-02T05:40:54;12.02;;;4.60;;
81510;SDS011;70931;48.796;8.440;2023-07-02T05:43:20;10.18;;;4.50;;
81510;SDS011;70931;48.796;8.440;2023-07-02T05:45:47;11.38;;;5.10;;
81510;SDS011;70931;48.796;8.440;2023-07-02T05:48:14;8.98;;;4.45;;
81510;SDS011;70931;48.796;8.440;2023-07-02T05:50:40;10.77;;;5.13;;
81510;SDS011;70931;48.796;8.440;2023-07-02T05:53:07;10.10;;;4.95;;
81510;SDS011;70931;48.796;8.440;2023-07-02T05:55:35;10.52;;;5.53;;
81510;SDS011;70931;48.796;8.440;2023-07-02T05:58:03;11.77;;;5.50;;
81510;SDS011;70931;48.796;8.440;2023-07-02T06:00:29;11.57;;;4.75;;
81510;SDS011;70931;48.796;8.440;2023-07-02T06:02:56;14.50;;;5.78;;
81510;SDS011;70931;48.796;8.440;2023-07-02T06:05:22;12.82;;;5.93;;
81510;SDS011;70931;48.796;8.440;2023-07-02T06:07:49;13.80;;;5.28;;
81510;SDS011;70931;48.796;8.440;2023-07-02T06:10:16;11.65;;;5.65;;
81510;SDS011;70931;48.796;8.440;2023-07-02T06:12:43;14.65;;;6.63;;
81510;SDS011;70931;48.796;8.440;2023-07-02T06:15:10;11.48;;;5.60;;
81510;SDS011;70931;48.796;8.440;2023-07-02T06:17:37;11.50;;;6.32;;
81510;SDS011;70931;48.796;8.440;2023-07-02T06:20:03;12.85;;;6.00;;
81510;SDS011;70931;48.796;8.440;2023-07-02T06:22:33;15.85;;;6.88;;
81510;SDS011;70931;48.796;8.440;2023-07-02T06:25:00;13.18;;;6.35;;
81510;SDS011;70931;48.796;8.440;2023-07-02T06:27:29;16.00;;;6.53;;
81510;SDS011;70931;48.796;8.440;2023-07-02T06:29:55;12.88;;;6.53;;
81510;SDS011;70931;48.796;8.440;2023-07-02T06:32:22;11.38;;;5.63;;
81510;SDS011;70931;48.796;8.440;2023-07-02T06:34:48;12.20;;;5.55;;
81510;SDS011;70931;48.796;8.440;2023-07-02T06:37:15;10.77;;;5.28;;
81510;SDS011;70931;48.796;8.440;2023-07-02T06:39:42;14.00;;;6.85;;
81510;SDS011;70931;48.796;8.440;2023-07-02T06:42:08;13.45;;;7.07;;
81510;SDS011;70931;48.796;8.440;2023-07-02T06:44:37;17.08;;;6.70;;
81510;SDS011;70931;48.796;8.440;2023-07-02T06:47:04;15.80;;;7.20;;
81510;SDS011;70931;48.796;8.440;2023-07-02T06:49:31;14.95;;;7.20;;
81510;SDS011;70931;48.796;8.440;2023-07-02T06:51:57;13.27;;;7.40;;
81510;SDS011;70931;48.796;8.440;2023-07-02T06:54:26;14.65;;;6.95;;
81510;SDS011;70931;48.796;8.440;2023-07-02T06:56:53;15.07;;;7.00;;
81510;SDS011;70931;48.796;8.440;2023-07-02T06:59:20;17.80;;;7.15;;
81510;SDS011;70931;48.796;8.440;2023-07-02T07:01:49;16.10;;;7.57;;
81510;SDS011;70931;48.796;8.440;2023-07-02T07:04:16;14.27;;;7.25;;
81510;SDS011;70931;48.796;8.440;2023-07-02T07:06:42;16.00;;;7.93;;
81510;SDS011;70931;48.796;8.440;2023-07-02T07:09:09;12.98;;;6.93;;
81510;SDS011;70931;48.796;8.440;2023-07-02T07:11:36;14.00;;;7.28;;
81510;SDS011;70931;48.796;8.440;2023-07-02T07:14:03;14.57;;;7.25;;
81510;SDS011;70931;48.796;8.440;2023-07-02T07:16:29;15.40;;;7.75;;
81510;SDS011;70931;48.796;8.440;2023-07-02T07:18:56;12.30;;;7.00;;
81510;SDS011;70931;48.796;8.440;2023-07-02T07:21:22;15.95;;;8.00;;
81510;SDS011;70931;48.796;8.440;2023-07-02T07:23:49;12.63;;;7.03;;
81510;SDS011;70931;48.796;8.440;2023-07-02T07:26:16;14.65;;;7.10;;
81510;SDS011;70931;48.796;8.440;2023-07-02T07:28:42;17.10;;;7.97;;
81510;SDS011;70931;48.796;8.440;2023-07-02T07:31:09;17.05;;;7.78;;
81510;SDS011;70931;48.796;8.440;2023-07-02T07:33:36;14.73;;;8.18;;
81510;SDS011;70931;48.796;8.440;2023-07-02T07:36:02;13.20;;;7.18;;
81510;SDS011;70931;48.796;8.440;2023-07-02T07:38:29;14.68;;;9.05;;
81510;SDS011;70931;48.796;8.440;2023-07-02T07:40:56;16.00;;;8.35;;
81510;SDS011;70931;48.796;8.440;2023-07-02T07:43:23;18.65;;;8.73;;
81510;SDS011;70931;48.796;8.440;2023-07-02T07:45:49;16.50;;;8.68;;
81510;SDS011;70931;48.796;8.440;2023-07-02T07:48:16;19.02;;;9.50;;
81510;SDS011;70931;48.796;8.440;2023-07-02T07:50:43;15.98;;;8.85;;
81510;SDS011;70931;48.796;8.440;2023-07-02T07:53:09;16.40;;;7.63;;
81510;SDS011;70931;48.796;8.440;2023-07-02T07:55:36;18.27;;;9.05;;
81510;SDS011;70931;48.796;8.440;2023-07-02T07:58:03;17.05;;;8.65;;
81510;SDS011;70931;48.796;8.440;2023-07-02T08:00:29;16.95;;;8.70;;
81510;SDS011;70931;48.796;8.440;2023-07-02T08:02:56;19.63;;;9.75;;
81510;SDS011;70931;48.796;8.440;2023-07-02T08:05:23;17.50;;;8.88;;
81510;SDS011;70931;48.796;8.440;2023-07-02T08:07:50;22.52;;;10.30;;
81510;SDS011;70931;48.796;8.440;2023-07-02T08:10:17;16.92;;;9.32;;
81510;SDS011;70931;48.796;8.440;2023-07-02T08:12:44;19.65;;;9.15;;
81510;SDS011;70931;48.796;8.440;2023-07-02T08:15:12;22.70;;;10.32;;
81510;SDS011;70931;48.796;8.440;2023-07-02T08:17:38;19.70;;;10.73;;
81510;SDS011;70931;48.796;8.440;2023-07-02T08:20:05;19.02;;;10.93;;
81510;SDS011;70931;48.796;8.440;2023-07-02T08:22:36;21.83;;;10.05;;
81510;SDS011;70931;48.796;8.440;2023-07-02T08:25:04;26.05;;;12.80;;
81510;SDS011;70931;48.796;8.440;2023-07-02T08:27:32;25.27;;;11.18;;
81510;SDS011;70931;48.796;8.440;2023-07-02T08:29:58;24.75;;;12.95;;
81510;SDS011;70931;48.796;8.440;2023-07-02T08:32:25;23.05;;;12.02;;
81510;SDS011;70931;48.796;8.440;2023-07-02T08:34:52;24.58;;;12.05;;
81510;SDS011;70931;48.796;8.440;2023-07-02T08:37:19;22.27;;;11.57;;
81510;SDS011;70931;48.796;8.440;2023-07-02T08:39:48;21.90;;;11.30;;
81510;SDS011;70931;48.796;8.440;2023-07-02T08:42:15;25.45;;;12.70;;
81510;SDS011;70931;48.796;8.440;2023-07-02T08:44:44;24.20;;;11.13;;
81510;SDS011;70931;48.796;8.440;2023-07-02T08:47:12;17.42;;;11.48;;
81510;SDS011;70931;48.796;8.440;2023-07-02T08:49:39;22.60;;;11.43;;
81510;SDS011;70931;48.796;8.440;2023-07-02T08:52:06;20.88;;;11.80;;
81510;SDS011;70931;48.796;8.440;2023-07-02T08:54:33;24.17;;;12.10;;
81510;SDS011;70931;48.796;8.440;2023-07-02T08:56:59;21.80;;;12.85;;
81510;SDS011;70931;48.796;8.440;2023-07-02T08:59:31;23.88;;;12.88;;
81510;SDS011;70931;48.796;8.440;2023-07-02T09:01:58;22.17;;;11.60;;
81510;SDS011;70931;48.796;8.440;2023-07-02T09:04:25;21.70;;;11.50;;
81510;SDS011;70931;48.796;8.440;2023-07-02T09:09:32;20.02;;;11.02;;
81510;SDS011;70931;48.796;8.440;2023-07-02T09:11:59;21.25;;;12.32;;
81510;SDS011;70931;48.796;8.440;2023-07-02T09:14:30;22.00;;;12.23;;
81510;SDS011;70931;48.796;8.440;2023-07-02T09:17:01;21.98;;;12.45;;
81510;SDS011;70931;48.796;8.440;2023-07-02T09:19:50;19.13;;;11.00;;
81510;SDS011;70931;48.796;8.440;2023-07-02T09:22:17;21.83;;;12.32;;
81510;SDS011;70931;48.796;8.440;2023-07-02T09:24:50;22.42;;;12.05;;
81510;SDS011;70931;48.796;8.440;2023-07-02T09:27:20;20.48;;;11.88;;
81510;SDS011;70931;48.796;8.440;2023-07-02T09:29:50;19.65;;;10.82;;
81510;SDS011;70931;48.796;8.440;2023-07-02T09:32:25;19.80;;;11.18;;
81510;SDS011;70931;48.796;8.440;2023-07-02T09:34:55;20.73;;;11.73;;
81510;SDS011;70931;48.796;8.440;2023-07-02T09:37:23;21.45;;;11.43;;
81510;SDS011;70931;48.796;8.440;2023-07-02T09:39:50;21.02;;;11.65;;
81510;SDS011;70931;48.796;8.440;2023-07-02T09:42:21;20.98;;;12.57;;
81510;SDS011;70931;48.796;8.440;2023-07-02T09:44:48;19.45;;;10.93;;
81510;SDS011;70931;48.796;8.440;2023-07-02T09:47:21;18.98;;;11.05;;
81510;SDS011;70931;48.796;8.440;2023-07-02T09:49:53;20.75;;;11.88;;
81510;SDS011;70931;48.796;8.440;2023-07-02T09:52:21;19.70;;;11.18;;
81510;SDS011;70931;48.796;8.440;2023-07-02T09:54:48;18.98;;;11.60;;
81510;SDS011;70931;48.796;8.440;2023-07-02T09:57:14;20.95;;;11.63;;
81510;SDS011;70931;48.796;8.440;2023-07-02T09:59:42;21.10;;;11.32;;
81510;SDS011;70931;48.796;8.440;2023-07-02T10:02:09;17.05;;;10.93;;
81510;SDS011;70931;48.796;8.440;2023-07-02T10:04:40;17.38;;;11.10;;
81510;SDS011;70931;48.796;8.440;2023-07-02T10:07:09;22.40;;;11.43;;
81510;SDS011;70931;48.796;8.440;2023-07-02T10:09:37;22.23;;;11.18;;
81510;SDS011;70931;48.796;8.440;2023-07-02T10:12:24;17.45;;;11.25;;
81510;SDS011;70931;48.796;8.440;2023-07-02T10:14:53;18.58;;;11.45;;
81510;SDS011;70931;48.796;8.440;2023-07-02T10:17:28;22.20;;;11.90;;
81510;SDS011;70931;48.796;8.440;2023-07-02T10:19:58;18.95;;;11.13;;
81510;SDS011;70931;48.796;8.440;2023-07-02T10:22:26;21.17;;;12.23;;
81510;SDS011;70931;48.796;8.440;2023-07-02T10:24:54;21.63;;;11.30;;
81510;SDS011;70931;48.796;8.440;2023-07-02T10:27:35;22.52;;;12.15;;
81510;SDS011;70931;48.796;8.440;2023-07-02T10:30:03;19.73;;;12.18;;
81510;SDS011;70931;48.796;8.440;2023-07-02T10:32:34;19.83;;;11.30;;
81510;SDS011;70931;48.796;8.440;2023-07-02T10:35:02;19.23;;;11.40;;
81510;SDS011;70931;48.796;8.440;2023-07-02T10:37:47;20.83;;;10.88;;
81510;SDS011;70931;48.796;8.440;2023-07-02T10:40:14;20.73;;;11.68;;
81510;SDS011;70931;48.796;8.440;2023-07-02T10:42:44;23.35;;;12.43;;
81510;SDS011;70931;48.796;8.440;2023-07-02T10:45:15;20.55;;;11.15;;
81510;SDS011;70931;48.796;8.440;2023-07-02T10:47:42;18.27;;;11.27;;
81510;SDS011;70931;48.796;8.440;2023-07-02T10:50:15;19.67;;;11.68;;
81510;SDS011;70931;48.796;8.440;2023-07-02T10:52:47;19.23;;;11.25;;
81510;SDS011;70931;48.796;8.440;2023-07-02T10:55:19;17.60;;;11.15;;
81510;SDS011;70931;48.796;8.440;2023-07-02T10:57:48;20.13;;;11.77;;
81510;SDS011;70931;48.796;8.440;2023-07-02T11:00:18;20.00;;;12.00;;
81510;SDS011;70931;48.796;8.440;2023-07-02T11:02:45;21.70;;;11.27;;
81510;SDS011;70931;48.796;8.440;2023-07-02T11:05:12;18.52;;;10.63;;
81510;SDS011;70931;48.796;8.440;2023-07-02T11:07:41;18.50;;;10.98;;
81510;SDS011;70931;48.796;8.440;2023-07-02T11:10:09;19.58;;;12.60;;
81510;SDS011;70931;48.796;8.440;2023-07-02T11:12:37;19.50;;;10.60;;
81510;SDS011;70931;48.796;8.440;2023-07-02T11:15:14;18.30;;;11.88;;
81510;SDS011;70931;48.796;8.440;2023-07-02T11:17:41;21.73;;;11.65;;
81510;SDS011;70931;48.796;8.440;2023-07-02T11:20:08;21.67;;;11.95;;
81510;SDS011;70931;48.796;8.440;2023-07-02T11:22:37;21.25;;;12.00;;
81510;SDS011;70931;48.796;8.440;2023-07-02T11:25:23;18.10;;;11.52;;
81510;SDS011;70931;48.796;8.440;2023-07-02T11:27:50;19.13;;;11.07;;
81510;SDS011;70931;48.796;8.440;2023-07-02T11:30:27;19.38;;;11.75;;
81510;SDS011;70931;48.796;8.440;2023-07-02T11:32:54;21.67;;;11.95;;
81510;SDS011;70931;48.796;8.440;2023-07-02T11:35:21;17.60;;;11.63;;
81510;SDS011;70931;48.796;8.440;2023-07-02T11:37:59;17.73;;;11.93;;
81510;SDS011;70931;48.796;8.440;2023-07-02T11:40:26;20.23;;;12.48;;
81510;SDS011;70931;48.796;8.440;2023-07-02T11:42:52;18.67;;;11.65;;
81510;SDS011;70931;48.796;8.440;2023-07-02T11:45:19;20.92;;;12.32;;
81510;SDS011;70931;48.796;8.440;2023-07-02T11:47:46;20.48;;;12.18;;
81510;SDS011;70931;48.796;8.440;2023-07-02T11:50:13;18.08;;;11.63;;
81510;SDS011;70931;48.796;8.440;2023-07-02T11:52:46;22.02;;;11.75;;
81510;SDS011;70931;48.796;8.440;2023-07-02T11:55:13;19.77;;;12.45;;
81510;SDS011;70931;48.796;8.440;2023-07-02T11:57:40;20.30;;;11.65;;
81510;SDS011;70931;48.796;8.440;2023-07-02T12:00:06;17.23;;;11.05;;
81510;SDS011;70931;48.796;8.440;2023-07-02T12:02:33;19.83;;;12.15;;
81510;SDS011;70931;48.796;8.440;2023-07-02T12:05:00;21.38;;;11.70;;
81510;SDS011;70931;48.796;8.440;2023-07-02T12:07:28;18.10;;;10.60;;
81510;SDS011;70931;48.796;8.440;2023-07-02T12:09:54;17.92;;;11.65;;
81510;SDS011;70931;48.796;8.440;2023-07-02T12:12:21;20.38;;;11.73;;
81510;SDS011;70931;48.796;8.440;2023-07-02T12:14:47;18.45;;;11.32;;
81510;SDS011;70931;48.796;8.440;2023-07-02T12:17:14;17.55;;;10.85;;
81510;SDS011;70931;48.796;8.440;2023-07-02T12:19:41;18.23;;;11.15;;
81510;SDS011;70931;48.796;8.440;2023-07-02T12:22:08;18.42;;;11.43;;
81510;SDS011;70931;48.796;8.440;2023-07-02T12:24:35;19.13;;;11.18;;
81510;SDS011;70931;48.796;8.440;2023-07-02T12:27:01;18.27;;;11.25;;
81510;SDS011;70931;48.796;8.440;2023-07-02T12:29:28;16.58;;;10.70;;
81510;SDS011;70931;48.796;8.440;2023-07-02T12:31:55;16.98;;;10.68;;
81510;SDS011;70931;48.796;8.440;2023-07-02T12:34:21;15.13;;;10.07;;
81510;SDS011;70931;48.796;8.440;2023-07-02T12:36:48;18.70;;;10.60;;
81510;SDS011;70931;48.796;8.440;2023-07-02T12:39:14;17.40;;;10.23;;
81510;SDS011;70931;48.796;8.440;2023-07-02T12:41:42;18.13;;;10.90;;
81510;SDS011;70931;48.796;8.440;2023-07-02T12:44:09;17.25;;;10.38;;
81510;SDS011;70931;48.796;8.440;2023-07-02T12:46:35;16.92;;;10.93;;
81510;SDS011;70931;48.796;8.440;2023-07-02T12:49:02;16.35;;;10.38;;
81510;SDS011;70931;48.796;8.440;2023-07-02T12:51:29;17.65;;;11.05;;
81510;SDS011;70931;48.796;8.440;2023-07-02T12:53:55;17.75;;;10.80;;
81510;SDS011;70931;48.796;8.440;2023-07-02T12:56:22;16.90;;;10.80;;
81510;SDS011;70931;48.796;8.440;2023-07-02T12:58:49;17.25;;;10.68;;
81510;SDS011;70931;48.796;8.440;2023-07-02T13:01:17;18.00;;;11.23;;
81510;SDS011;70931;48.796;8.440;2023-07-02T13:03:44;16.90;;;10.60;;
81510;SDS011;70931;48.796;8.440;2023-07-02T13:06:15;15.38;;;10.10;;
81510;SDS011;70931;48.796;8.440;2023-07-02T13:08:42;18.52;;;10.63;;
81510;SDS011;70931;48.796;8.440;2023-07-02T13:11:09;15.70;;;10.13;;
81510;SDS011;70931;48.796;8.440;2023-07-02T13:13:35;16.98;;;9.55;;
81510;SDS011;70931;48.796;8.440;2023-07-02T13:16:02;20.73;;;10.75;;
81510;SDS011;70931;48.796;8.440;2023-07-02T13:18:29;17.35;;;10.23;;
81510;SDS011;70931;48.796;8.440;2023-07-02T13:20:56;16.17;;;9.50;;
81510;SDS011;70931;48.796;8.440;2023-07-02T13:23:22;17.83;;;10.52;;
81510;SDS011;70931;48.796;8.440;2023-07-02T13:25:49;18.23;;;10.40;;
81510;SDS011;70931;48.796;8.440;2023-07-02T13:28:16;17.65;;;9.93;;
81510;SDS011;70931;48.796;8.440;2023-07-02T13:30:43;17.73;;;10.27;;
81510;SDS011;70931;48.796;8.440;2023-07-02T13:33:09;17.58;;;10.20;;
81510;SDS011;70931;48.796;8.440;2023-07-02T13:35:36;16.90;;;10.48;;
81510;SDS011;70931;48.796;8.440;2023-07-02T13:40:31;18.45;;;10.30;;
81510;SDS011;70931;48.796;8.440;2023-07-02T13:42:57;16.65;;;10.02;;
81510;SDS011;70931;48.796;8.440;2023-07-02T13:45:24;16.63;;;10.43;;
81510;SDS011;70931;48.796;8.440;2023-07-02T13:47:51;16.60;;;10.00;;
81510;SDS011;70931;48.796;8.440;2023-07-02T13:50:18;17.95;;;10.27;;
81510;SDS011;70931;48.796;8.440;2023-07-02T13:55:12;19.42;;;10.80;;
81510;SDS011;70931;48.796;8.440;2023-07-02T13:57:39;20.00;;;10.20;;
81510;SDS011;70931;48.796;8.440;2023-07-02T14:00:06;16.95;;;10.45;;
81510;SDS011;70931;48.796;8.440;2023-07-02T14:02:34;15.25;;;9.55;;
81510;SDS011;70931;48.796;8.440;2023-07-02T14:05:01;17.17;;;10.32;;
81510;SDS011;70931;48.796;8.440;2023-07-02T14:07:27;16.27;;;10.15;;
81510;SDS011;70931;48.796;8.440;2023-07-02T14:09:54;18.05;;;10.25;;
81510;SDS011;70931;48.796;8.440;2023-07-02T14:12:21;16.38;;;9.50;;
81510;SDS011;70931;48.796;8.440;2023-07-02T14:14:48;19.60;;;10.63;;
81510;SDS011;70931;48.796;8.440;2023-07-02T14:17:15;17.85;;;9.45;;
81510;SDS011;70931;48.796;8.440;2023-07-02T14:19:42;16.42;;;9.70;;
81510;SDS011;70931;48.796;8.440;2023-07-02T14:22:10;15.82;;;9.77;;
81510;SDS011;70931;48.796;8.440;2023-07-02T14:24:37;17.65;;;9.52;;
81510;SDS011;70931;48.796;8.440;2023-07-02T14:27:04;16.55;;;10.48;;
81510;SDS011;70931;48.796;8.440;2023-07-02T14:29:31;16.55;;;9.70;;
81510;SDS011;70931;48.796;8.440;2023-07-02T14:31:58;17.95;;;10.02;;
81510;SDS011;70931;48.796;8.440;2023-07-02T14:34:25;16.73;;;9.50;;
81510;SDS011;70931;48.796;8.440;2023-07-02T14:36:51;18.63;;;9.95;;
81510;SDS011;70931;48.796;8.440;2023-07-02T14:39:18;17.77;;;10.13;;
81510;SDS011;70931;48.796;8.440;2023-07-02T14:41:45;16.65;;;10.25;;
81510;SDS011;70931;48.796;8.440;2023-07-02T14:44:11;16.55;;;10.32;;
81510;SDS011;70931;48.796;8.440;2023-07-02T14:46:39;17.65;;;9.68;;
81510;SDS011;70931;48.796;8.440;2023-07-02T14:49:06;17.20;;;9.88;;